sensor_id;sensor_type;location;lat;lon;timestamp;P1;durP1;ratioP1;P2;durP2;ratioP2
70560;SDS011;58109;53.570;10.084;2023-04-29T00:02:13;18.97;;;10.80;;
70560;SDS011;58109;53.570;10.084;2023-04-29T00:04:38;16.03;;;9.80;;
70560;SDS011;58109;53.570;10.084;2023-04-29T00:07:07;18.80;;;11.40;;
70560;SDS011;58109;53.570;10.084;2023-04-29T00:09:33;20.67;;;11.17;;
70560;SDS011;58109;53.570;10.084;2023-04-29T00:12:02;21.20;;;10.97;;
70560;SDS011;58109;53.570;10.084;2023-04-29T00:14:27;19.27;;;11.03;;
70560;SDS011;58109;53.570;10.084;2023-04-29T00:16:55;16.10;;;10.20;;
70560;SDS011;58109;53.570;10.084;2023-04-29T00:19:21;18.00;;;10.43;;
70560;SDS011;58109;53.570;10.084;2023-04-29T00:21:46;21.47;;;10.90;;
70560;SDS011;58109;53.570;10.084;2023-04-29T00:24:14;18.80;;;9.80;;
70560;SDS011;58109;53.570;10.084;2023-04-29T00:26:44;15.93;;;10.80;;
70560;SDS011;58109;53.570;10.084;2023-04-29T00:29:12;19.17;;;11.20;;
70560;SDS011;58109;53.570;10.084;2023-04-29T00:31:39;19.97;;;10.97;;
70560;SDS011;58109;53.570;10.084;2023-04-29T00:34:07;18.23;;;10.90;;
70560;SDS011;58109;53.570;10.084;2023-04-29T00:36:32;19.63;;;11.53;;
70560;SDS011;58109;53.570;10.084;2023-04-29T00:39:00;24.03;;;11.13;;
70560;SDS011;58109;53.570;10.084;2023-04-29T00:41:27;18.07;;;11.47;;
70560;SDS011;58109;53.570;10.084;2023-04-29T00:43:52;17.73;;;11.87;;
70560;SDS011;58109;53.570;10.084;2023-04-29T00:46:20;16.90;;;11.63;;
70560;SDS011;58109;53.570;10.084;2023-04-29T00:48:48;16.97;;;12.00;;
70560;SDS011;58109;53.570;10.084;2023-04-29T00:51:14;21.53;;;11.53;;
70560;SDS011;58109;53.570;10.084;2023-04-29T00:53:43;17.40;;;10.83;;
70560;SDS011;58109;53.570;10.084;2023-04-29T00:56:09;20.93;;;11.83;;
70560;SDS011;58109;53.570;10.084;2023-04-29T00:58:35;18.23;;;11.87;;
70560;SDS011;58109;53.570;10.084;2023-04-29T01:01:03;18.53;;;12.20;;
70560;SDS011;58109;53.570;10.084;2023-04-29T01:03:29;22.70;;;12.40;;
70560;SDS011;58109;53.570;10.084;2023-04-29T01:06:05;20.20;;;12.20;;
70560;SDS011;58109;53.570;10.084;2023-04-29T01:11:21;23.37;;;12.73;;
70560;SDS011;58109;53.570;10.084;2023-04-29T01:13:53;19.30;;;12.97;;
70560;SDS011;58109;53.570;10.084;2023-04-29T01:16:46;21.50;;;13.37;;
70560;SDS011;58109;53.570;10.084;2023-04-29T01:21:55;21.00;;;12.30;;
70560;SDS011;58109;53.570;10.084;2023-04-29T01:24:23;24.50;;;13.20;;
70560;SDS011;58109;53.570;10.084;2023-04-29T01:26:55;20.90;;;13.60;;
70560;SDS011;58109;53.570;10.084;2023-04-29T01:29:34;22.93;;;12.77;;
70560;SDS011;58109;53.570;10.084;2023-04-29T01:32:36;24.00;;;12.97;;
70560;SDS011;58109;53.570;10.084;2023-04-29T01:35:16;22.17;;;13.90;;
70560;SDS011;58109;53.570;10.084;2023-04-29T01:37:51;21.03;;;13.53;;
70560;SDS011;58109;53.570;10.084;2023-04-29T01:40:25;28.40;;;14.20;;
70560;SDS011;58109;53.570;10.084;2023-04-29T01:43:01;26.20;;;13.50;;
70560;SDS011;58109;53.570;10.084;2023-04-29T01:45:27;20.97;;;13.17;;
70560;SDS011;58109;53.570;10.084;2023-04-29T01:47:53;27.17;;;13.90;;
70560;SDS011;58109;53.570;10.084;2023-04-29T01:50:21;24.10;;;13.67;;
70560;SDS011;58109;53.570;10.084;2023-04-29T01:52:47;22.00;;;13.40;;
70560;SDS011;58109;53.570;10.084;2023-04-29T01:55:15;27.37;;;14.73;;
70560;SDS011;58109;53.570;10.084;2023-04-29T01:57:40;27.70;;;13.90;;
70560;SDS011;58109;53.570;10.084;2023-04-29T02:00:08;31.73;;;14.73;;
70560;SDS011;58109;53.570;10.084;2023-04-29T02:02:39;24.30;;;13.97;;
70560;SDS011;58109;53.570;10.084;2023-04-29T02:05:09;22.53;;;14.00;;
70560;SDS011;58109;53.570;10.084;2023-04-29T02:07:35;24.40;;;15.50;;
70560;SDS011;58109;53.570;10.084;2023-04-29T02:10:04;29.40;;;15.30;;
70560;SDS011;58109;53.570;10.084;2023-04-29T02:12:29;22.63;;;13.70;;
70560;SDS011;58109;53.570;10.084;2023-04-29T02:15:00;25.47;;;15.20;;
70560;SDS011;58109;53.570;10.084;2023-04-29T02:17:26;25.20;;;14.80;;
70560;SDS011;58109;53.570;10.084;2023-04-29T02:19:53;30.80;;;15.17;;
70560;SDS011;58109;53.570;10.084;2023-04-29T02:22:22;22.43;;;14.93;;
70560;SDS011;58109;53.570;10.084;2023-04-29T02:24:47;29.97;;;14.67;;
70560;SDS011;58109;53.570;10.084;2023-04-29T02:27:15;26.23;;;14.70;;
70560;SDS011;58109;53.570;10.084;2023-04-29T02:29:40;27.17;;;14.23;;
70560;SDS011;58109;53.570;10.084;2023-04-29T02:32:08;27.80;;;14.33;;
70560;SDS011;58109;53.570;10.084;2023-04-29T02:34:33;25.63;;;14.80;;
70560;SDS011;58109;53.570;10.084;2023-04-29T02:37:01;26.10;;;15.10;;
70560;SDS011;58109;53.570;10.084;2023-04-29T02:39:26;21.17;;;14.77;;
70560;SDS011;58109;53.570;10.084;2023-04-29T02:41:53;23.53;;;14.70;;
70560;SDS011;58109;53.570;10.084;2023-04-29T02:44:23;25.43;;;14.63;;
70560;SDS011;58109;53.570;10.084;2023-04-29T02:46:48;27.00;;;14.40;;
70560;SDS011;58109;53.570;10.084;2023-04-29T02:49:14;30.10;;;15.70;;
70560;SDS011;58109;53.570;10.084;2023-04-29T02:51:41;29.00;;;14.40;;
70560;SDS011;58109;53.570;10.084;2023-04-29T02:54:07;23.53;;;14.20;;
70560;SDS011;58109;53.570;10.084;2023-04-29T02:56:32;21.73;;;14.03;;
70560;SDS011;58109;53.570;10.084;2023-04-29T02:59:00;25.50;;;15.53;;
70560;SDS011;58109;53.570;10.084;2023-04-29T03:01:25;24.40;;;15.10;;
70560;SDS011;58109;53.570;10.084;2023-04-29T03:03:53;28.53;;;15.67;;
70560;SDS011;58109;53.570;10.084;2023-04-29T03:06:19;29.87;;;16.27;;
70560;SDS011;58109;53.570;10.084;2023-04-29T03:08:44;24.47;;;14.70;;
70560;SDS011;58109;53.570;10.084;2023-04-29T03:11:14;24.03;;;15.87;;
70560;SDS011;58109;53.570;10.084;2023-04-29T03:13:40;27.20;;;14.37;;
70560;SDS011;58109;53.570;10.084;2023-04-29T03:16:06;28.00;;;15.27;;
70560;SDS011;58109;53.570;10.084;2023-04-29T03:18:37;23.77;;;14.07;;
70560;SDS011;58109;53.570;10.084;2023-04-29T03:21:02;24.93;;;13.53;;
70560;SDS011;58109;53.570;10.084;2023-04-29T03:23:28;23.30;;;14.07;;
70560;SDS011;58109;53.570;10.084;2023-04-29T03:25:56;23.57;;;14.00;;
70560;SDS011;58109;53.570;10.084;2023-04-29T03:28:21;26.90;;;15.00;;
70560;SDS011;58109;53.570;10.084;2023-04-29T03:30:48;24.60;;;14.90;;
70560;SDS011;58109;53.570;10.084;2023-04-29T03:33:13;27.53;;;14.47;;
70560;SDS011;58109;53.570;10.084;2023-04-29T03:35:41;25.67;;;15.03;;
70560;SDS011;58109;53.570;10.084;2023-04-29T03:38:09;23.07;;;14.27;;
70560;SDS011;58109;53.570;10.084;2023-04-29T03:40:34;24.80;;;14.50;;
70560;SDS011;58109;53.570;10.084;2023-04-29T03:42:59;22.90;;;13.83;;
70560;SDS011;58109;53.570;10.084;2023-04-29T03:45:28;28.03;;;14.77;;
70560;SDS011;58109;53.570;10.084;2023-04-29T03:47:53;27.20;;;14.40;;
70560;SDS011;58109;53.570;10.084;2023-04-29T03:50:21;25.37;;;15.17;;
70560;SDS011;58109;53.570;10.084;2023-04-29T03:52:47;26.10;;;15.03;;
70560;SDS011;58109;53.570;10.084;2023-04-29T03:55:13;27.37;;;14.80;;
70560;SDS011;58109;53.570;10.084;2023-04-29T03:57:38;22.87;;;15.07;;
70560;SDS011;58109;53.570;10.084;2023-04-29T04:00:04;24.03;;;14.67;;
70560;SDS011;58109;53.570;10.084;2023-04-29T04:02:33;27.30;;;14.37;;
70560;SDS011;58109;53.570;10.084;2023-04-29T04:04:59;24.77;;;15.07;;
70560;SDS011;58109;53.570;10.084;2023-04-29T04:07:25;25.80;;;15.57;;
70560;SDS011;58109;53.570;10.084;2023-04-29T04:09:50;26.03;;;14.60;;
70560;SDS011;58109;53.570;10.084;2023-04-29T04:12:18;23.50;;;14.43;;
70560;SDS011;58109;53.570;10.084;2023-04-29T04:14:43;28.10;;;14.90;;
70560;SDS011;58109;53.570;10.084;2023-04-29T04:17:09;24.80;;;14.67;;
70560;SDS011;58109;53.570;10.084;2023-04-29T04:19:34;21.80;;;15.00;;
70560;SDS011;58109;53.570;10.084;2023-04-29T04:22:01;35.70;;;18.40;;
70560;SDS011;58109;53.570;10.084;2023-04-29T04:24:31;24.80;;;15.97;;
70560;SDS011;58109;53.570;10.084;2023-04-29T04:27:01;27.43;;;15.80;;
70560;SDS011;58109;53.570;10.084;2023-04-29T04:29:31;32.33;;;17.70;;
70560;SDS011;58109;53.570;10.084;2023-04-29T04:31:56;30.30;;;16.80;;
70560;SDS011;58109;53.570;10.084;2023-04-29T04:34:21;23.47;;;14.33;;
70560;SDS011;58109;53.570;10.084;2023-04-29T04:36:49;30.30;;;16.27;;
70560;SDS011;58109;53.570;10.084;2023-04-29T04:39:17;24.77;;;15.47;;
70560;SDS011;58109;53.570;10.084;2023-04-29T04:41:45;35.53;;;18.90;;
70560;SDS011;58109;53.570;10.084;2023-04-29T04:44:10;30.73;;;16.90;;
70560;SDS011;58109;53.570;10.084;2023-04-29T04:46:36;28.20;;;14.70;;
70560;SDS011;58109;53.570;10.084;2023-04-29T04:49:02;26.53;;;15.90;;
70560;SDS011;58109;53.570;10.084;2023-04-29T04:51:29;31.33;;;16.10;;
70560;SDS011;58109;53.570;10.084;2023-04-29T04:53:57;28.13;;;15.77;;
70560;SDS011;58109;53.570;10.084;2023-04-29T04:56:23;26.93;;;15.10;;
70560;SDS011;58109;53.570;10.084;2023-04-29T04:58:48;28.50;;;15.43;;
70560;SDS011;58109;53.570;10.084;2023-04-29T05:01:16;22.60;;;14.70;;
70560;SDS011;58109;53.570;10.084;2023-04-29T05:03:44;29.57;;;13.80;;
70560;SDS011;58109;53.570;10.084;2023-04-29T05:06:09;22.97;;;12.93;;
70560;SDS011;58109;53.570;10.084;2023-04-29T05:08:37;25.57;;;14.10;;
70560;SDS011;58109;53.570;10.084;2023-04-29T05:11:03;25.87;;;15.27;;
70560;SDS011;58109;53.570;10.084;2023-04-29T05:13:28;23.00;;;14.17;;
70560;SDS011;58109;53.570;10.084;2023-04-29T05:15:54;22.20;;;13.67;;
70560;SDS011;58109;53.570;10.084;2023-04-29T05:18:20;23.90;;;13.43;;
70560;SDS011;58109;53.570;10.084;2023-04-29T05:20:45;21.93;;;13.60;;
70560;SDS011;58109;53.570;10.084;2023-04-29T05:23:11;28.20;;;15.07;;
70560;SDS011;58109;53.570;10.084;2023-04-29T05:25:36;29.40;;;14.30;;
70560;SDS011;58109;53.570;10.084;2023-04-29T05:28:04;26.60;;;13.67;;
70560;SDS011;58109;53.570;10.084;2023-04-29T05:30:31;24.10;;;14.37;;
70560;SDS011;58109;53.570;10.084;2023-04-29T05:32:56;19.30;;;12.93;;
70560;SDS011;58109;53.570;10.084;2023-04-29T05:35:24;24.93;;;12.40;;
70560;SDS011;58109;53.570;10.084;2023-04-29T05:37:54;25.43;;;14.57;;
70560;SDS011;58109;53.570;10.084;2023-04-29T05:40:22;19.77;;;12.60;;
70560;SDS011;58109;53.570;10.084;2023-04-29T05:42:50;21.67;;;12.77;;
70560;SDS011;58109;53.570;10.084;2023-04-29T05:45:16;18.20;;;12.60;;
70560;SDS011;58109;53.570;10.084;2023-04-29T05:47:41;24.03;;;11.97;;
70560;SDS011;58109;53.570;10.084;2023-04-29T05:50:09;26.13;;;12.50;;
70560;SDS011;58109;53.570;10.084;2023-04-29T05:52:37;25.00;;;12.50;;
70560;SDS011;58109;53.570;10.084;2023-04-29T05:55:03;24.63;;;13.10;;
70560;SDS011;58109;53.570;10.084;2023-04-29T05:57:31;25.60;;;12.13;;
70560;SDS011;58109;53.570;10.084;2023-04-29T05:59:56;20.60;;;11.97;;
70560;SDS011;58109;53.570;10.084;2023-04-29T06:02:30;22.10;;;11.30;;
70560;SDS011;58109;53.570;10.084;2023-04-29T06:04:56;20.97;;;12.30;;
70560;SDS011;58109;53.570;10.084;2023-04-29T06:07:24;22.87;;;12.63;;
70560;SDS011;58109;53.570;10.084;2023-04-29T06:09:50;16.97;;;10.40;;
70560;SDS011;58109;53.570;10.084;2023-04-29T06:12:16;19.17;;;10.73;;
70560;SDS011;58109;53.570;10.084;2023-04-29T06:14:43;16.23;;;10.43;;
70560;SDS011;58109;53.570;10.084;2023-04-29T06:17:11;22.90;;;10.97;;
70560;SDS011;58109;53.570;10.084;2023-04-29T06:19:37;18.93;;;10.20;;
70560;SDS011;58109;53.570;10.084;2023-04-29T06:22:02;22.43;;;10.77;;
70560;SDS011;58109;53.570;10.084;2023-04-29T06:24:27;19.23;;;10.90;;
70560;SDS011;58109;53.570;10.084;2023-04-29T06:26:53;23.23;;;11.50;;
70560;SDS011;58109;53.570;10.084;2023-04-29T06:29:23;23.30;;;13.00;;
70560;SDS011;58109;53.570;10.084;2023-04-29T06:31:48;17.97;;;9.27;;
70560;SDS011;58109;53.570;10.084;2023-04-29T06:34:17;18.80;;;9.10;;
70560;SDS011;58109;53.570;10.084;2023-04-29T06:36:44;24.37;;;10.20;;
70560;SDS011;58109;53.570;10.084;2023-04-29T06:39:10;16.23;;;9.23;;
70560;SDS011;58109;53.570;10.084;2023-04-29T06:41:39;24.40;;;9.00;;
70560;SDS011;58109;53.570;10.084;2023-04-29T06:44:07;18.43;;;10.23;;
70560;SDS011;58109;53.570;10.084;2023-04-29T06:46:33;17.67;;;10.53;;
70560;SDS011;58109;53.570;10.084;2023-04-29T06:48:58;25.27;;;10.23;;
70560;SDS011;58109;53.570;10.084;2023-04-29T06:51:23;19.63;;;10.57;;
70560;SDS011;58109;53.570;10.084;2023-04-29T06:53:49;17.20;;;9.80;;
70560;SDS011;58109;53.570;10.084;2023-04-29T06:56:17;452.80;;;36.77;;
70560;SDS011;58109;53.570;10.084;2023-04-29T06:58:44;30.83;;;10.13;;
70560;SDS011;58109;53.570;10.084;2023-04-29T07:01:10;19.07;;;9.77;;
70560;SDS011;58109;53.570;10.084;2023-04-29T07:03:38;13.00;;;9.10;;
70560;SDS011;58109;53.570;10.084;2023-04-29T07:06:03;24.97;;;8.33;;
70560;SDS011;58109;53.570;10.084;2023-04-29T07:08:31;19.80;;;9.60;;
70560;SDS011;58109;53.570;10.084;2023-04-29T07:10:57;21.43;;;9.17;;
70560;SDS011;58109;53.570;10.084;2023-04-29T07:13:23;20.97;;;9.33;;
70560;SDS011;58109;53.570;10.084;2023-04-29T07:15:49;18.30;;;9.00;;
70560;SDS011;58109;53.570;10.084;2023-04-29T07:18:15;17.27;;;8.77;;
70560;SDS011;58109;53.570;10.084;2023-04-29T07:20:40;17.17;;;8.53;;
70560;SDS011;58109;53.570;10.084;2023-04-29T07:23:08;13.50;;;8.80;;
70560;SDS011;58109;53.570;10.084;2023-04-29T07:25:36;17.67;;;9.37;;
70560;SDS011;58109;53.570;10.084;2023-04-29T07:28:04;16.80;;;8.10;;
70560;SDS011;58109;53.570;10.084;2023-04-29T07:30:36;14.30;;;8.43;;
70560;SDS011;58109;53.570;10.084;2023-04-29T07:33:01;16.83;;;7.40;;
70560;SDS011;58109;53.570;10.084;2023-04-29T07:35:31;15.90;;;7.70;;
70560;SDS011;58109;53.570;10.084;2023-04-29T07:38:00;19.87;;;8.03;;
70560;SDS011;58109;53.570;10.084;2023-04-29T07:40:27;13.13;;;7.27;;
70560;SDS011;58109;53.570;10.084;2023-04-29T07:42:55;11.73;;;6.50;;
70560;SDS011;58109;53.570;10.084;2023-04-29T07:45:21;18.30;;;8.40;;
70560;SDS011;58109;53.570;10.084;2023-04-29T07:47:46;23.73;;;8.33;;
70560;SDS011;58109;53.570;10.084;2023-04-29T07:50:16;14.47;;;6.90;;
70560;SDS011;58109;53.570;10.084;2023-04-29T07:52:42;24.90;;;9.73;;
70560;SDS011;58109;53.570;10.084;2023-04-29T07:55:10;16.67;;;6.93;;
70560;SDS011;58109;53.570;10.084;2023-04-29T07:57:37;10.33;;;6.60;;
70560;SDS011;58109;53.570;10.084;2023-04-29T08:00:05;15.60;;;7.50;;
70560;SDS011;58109;53.570;10.084;2023-04-29T08:02:33;11.30;;;6.90;;
70560;SDS011;58109;53.570;10.084;2023-04-29T08:04:59;17.43;;;7.73;;
70560;SDS011;58109;53.570;10.084;2023-04-29T08:07:29;15.97;;;7.73;;
70560;SDS011;58109;53.570;10.084;2023-04-29T08:09:55;10.77;;;6.83;;
70560;SDS011;58109;53.570;10.084;2023-04-29T08:12:20;14.40;;;7.40;;
70560;SDS011;58109;53.570;10.084;2023-04-29T08:14:46;13.70;;;7.00;;
70560;SDS011;58109;53.570;10.084;2023-04-29T08:17:14;13.60;;;7.87;;
70560;SDS011;58109;53.570;10.084;2023-04-29T08:19:39;15.10;;;8.90;;
70560;SDS011;58109;53.570;10.084;2023-04-29T08:22:05;15.33;;;7.93;;
70560;SDS011;58109;53.570;10.084;2023-04-29T08:24:35;18.90;;;6.80;;
70560;SDS011;58109;53.570;10.084;2023-04-29T08:27:00;16.97;;;6.90;;
70560;SDS011;58109;53.570;10.084;2023-04-29T08:29:30;21.30;;;6.47;;
70560;SDS011;58109;53.570;10.084;2023-04-29T08:31:59;14.03;;;6.50;;
70560;SDS011;58109;53.570;10.084;2023-04-29T08:34:24;11.50;;;6.57;;
70560;SDS011;58109;53.570;10.084;2023-04-29T08:36:53;14.90;;;7.33;;
70560;SDS011;58109;53.570;10.084;2023-04-29T08:39:20;9.47;;;5.70;;
70560;SDS011;58109;53.570;10.084;2023-04-29T08:41:46;8.67;;;5.90;;
70560;SDS011;58109;53.570;10.084;2023-04-29T08:44:15;16.77;;;7.00;;
70560;SDS011;58109;53.570;10.084;2023-04-29T08:46:46;11.17;;;7.30;;
70560;SDS011;58109;53.570;10.084;2023-04-29T08:49:12;15.47;;;6.40;;
70560;SDS011;58109;53.570;10.084;2023-04-29T08:51:38;9.93;;;6.43;;
70560;SDS011;58109;53.570;10.084;2023-04-29T08:54:03;20.50;;;6.77;;
70560;SDS011;58109;53.570;10.084;2023-04-29T08:56:29;15.07;;;6.90;;
70560;SDS011;58109;53.570;10.084;2023-04-29T08:58:58;25.03;;;6.93;;
70560;SDS011;58109;53.570;10.084;2023-04-29T09:01:27;13.20;;;7.77;;
70560;SDS011;58109;53.570;10.084;2023-04-29T09:04:06;14.37;;;7.97;;
70560;SDS011;58109;53.570;10.084;2023-04-29T09:06:32;15.40;;;8.10;;
70560;SDS011;58109;53.570;10.084;2023-04-29T09:09:04;13.40;;;8.07;;
70560;SDS011;58109;53.570;10.084;2023-04-29T09:11:30;18.23;;;8.13;;
70560;SDS011;58109;53.570;10.084;2023-04-29T09:13:59;22.50;;;8.23;;
70560;SDS011;58109;53.570;10.084;2023-04-29T09:16:30;14.17;;;8.40;;
70560;SDS011;58109;53.570;10.084;2023-04-29T09:18:59;17.23;;;8.90;;
70560;SDS011;58109;53.570;10.084;2023-04-29T09:21:27;15.43;;;7.07;;
70560;SDS011;58109;53.570;10.084;2023-04-29T09:26:23;14.80;;;8.93;;
70560;SDS011;58109;53.570;10.084;2023-04-29T09:29:10;16.03;;;8.33;;
70560;SDS011;58109;53.570;10.084;2023-04-29T09:31:42;14.70;;;8.73;;
70560;SDS011;58109;53.570;10.084;2023-04-29T09:34:09;17.57;;;8.80;;
70560;SDS011;58109;53.570;10.084;2023-04-29T09:39:15;16.10;;;8.37;;
70560;SDS011;58109;53.570;10.084;2023-04-29T09:44:22;21.63;;;9.90;;
70560;SDS011;58109;53.570;10.084;2023-04-29T09:46:58;20.50;;;10.63;;
70560;SDS011;58109;53.570;10.084;2023-04-29T09:52:12;15.37;;;9.10;;
70560;SDS011;58109;53.570;10.084;2023-04-29T09:54:40;13.20;;;8.17;;
70560;SDS011;58109;53.570;10.084;2023-04-29T09:57:07;18.10;;;8.00;;
70560;SDS011;58109;53.570;10.084;2023-04-29T09:59:36;15.63;;;8.13;;
70560;SDS011;58109;53.570;10.084;2023-04-29T10:02:15;18.20;;;7.50;;
70560;SDS011;58109;53.570;10.084;2023-04-29T10:04:43;9.43;;;6.23;;
70560;SDS011;58109;53.570;10.084;2023-04-29T10:07:19;11.77;;;6.33;;
70560;SDS011;58109;53.570;10.084;2023-04-29T10:09:47;8.83;;;6.30;;
70560;SDS011;58109;53.570;10.084;2023-04-29T10:12:16;14.00;;;7.03;;
70560;SDS011;58109;53.570;10.084;2023-04-29T10:14:44;15.23;;;8.00;;
70560;SDS011;58109;53.570;10.084;2023-04-29T10:17:17;12.00;;;6.43;;
70560;SDS011;58109;53.570;10.084;2023-04-29T10:19:56;16.60;;;7.27;;
70560;SDS011;58109;53.570;10.084;2023-04-29T10:22:28;12.70;;;7.00;;
70560;SDS011;58109;53.570;10.084;2023-04-29T10:24:57;11.57;;;7.03;;
70560;SDS011;58109;53.570;10.084;2023-04-29T10:27:26;14.50;;;6.80;;
70560;SDS011;58109;53.570;10.084;2023-04-29T10:29:55;17.60;;;7.10;;
70560;SDS011;58109;53.570;10.084;2023-04-29T10:32:22;16.10;;;7.80;;
70560;SDS011;58109;53.570;10.084;2023-04-29T10:34:49;11.97;;;6.80;;
70560;SDS011;58109;53.570;10.084;2023-04-29T10:37:16;12.30;;;6.20;;
70560;SDS011;58109;53.570;10.084;2023-04-29T10:40:05;15.60;;;5.93;;
70560;SDS011;58109;53.570;10.084;2023-04-29T10:45:18;14.70;;;7.53;;
70560;SDS011;58109;53.570;10.084;2023-04-29T10:50:33;15.40;;;6.87;;
70560;SDS011;58109;53.570;10.084;2023-04-29T10:53:09;11.73;;;5.27;;
70560;SDS011;58109;53.570;10.084;2023-04-29T10:55:35;10.10;;;5.83;;
70560;SDS011;58109;53.570;10.084;2023-04-29T10:58:02;24.70;;;6.40;;
70560;SDS011;58109;53.570;10.084;2023-04-29T11:00:28;13.10;;;6.60;;
70560;SDS011;58109;53.570;10.084;2023-04-29T11:02:57;14.70;;;5.90;;
70560;SDS011;58109;53.570;10.084;2023-04-29T11:05:32;14.17;;;6.70;;
70560;SDS011;58109;53.570;10.084;2023-04-29T11:10:38;12.40;;;7.90;;
70560;SDS011;58109;53.570;10.084;2023-04-29T11:13:23;15.03;;;6.90;;
70560;SDS011;58109;53.570;10.084;2023-04-29T11:15:50;13.50;;;6.73;;
70560;SDS011;58109;53.570;10.084;2023-04-29T11:18:18;18.73;;;7.63;;
70560;SDS011;58109;53.570;10.084;2023-04-29T11:23:34;12.63;;;6.90;;
70560;SDS011;58109;53.570;10.084;2023-04-29T11:26:00;9.50;;;6.57;;
70560;SDS011;58109;53.570;10.084;2023-04-29T11:28:31;12.07;;;5.90;;
70560;SDS011;58109;53.570;10.084;2023-04-29T11:30:58;12.97;;;6.80;;
70560;SDS011;58109;53.570;10.084;2023-04-29T11:33:26;10.07;;;6.90;;
70560;SDS011;58109;53.570;10.084;2023-04-29T11:35:55;10.23;;;6.20;;
70560;SDS011;58109;53.570;10.084;2023-04-29T11:38:27;14.70;;;7.77;;
70560;SDS011;58109;53.570;10.084;2023-04-29T11:40:54;10.73;;;6.63;;
70560;SDS011;58109;53.570;10.084;2023-04-29T11:43:25;11.33;;;7.30;;
70560;SDS011;58109;53.570;10.084;2023-04-29T11:45:51;13.70;;;8.20;;
70560;SDS011;58109;53.570;10.084;2023-04-29T11:48:17;15.73;;;7.80;;
70560;SDS011;58109;53.570;10.084;2023-04-29T11:50:43;11.90;;;7.50;;
70560;SDS011;58109;53.570;10.084;2023-04-29T11:53:10;11.90;;;6.60;;
70560;SDS011;58109;53.570;10.084;2023-04-29T11:55:36;15.63;;;7.37;;
70560;SDS011;58109;53.570;10.084;2023-04-29T11:58:03;14.43;;;7.40;;
70560;SDS011;58109;53.570;10.084;2023-04-29T12:00:31;13.10;;;6.43;;
70560;SDS011;58109;53.570;10.084;2023-04-29T12:02:58;10.83;;;6.40;;
70560;SDS011;58109;53.570;10.084;2023-04-29T12:05:27;13.60;;;6.17;;
70560;SDS011;58109;53.570;10.084;2023-04-29T12:07:55;23.10;;;6.80;;
70560;SDS011;58109;53.570;10.084;2023-04-29T12:10:23;17.30;;;7.83;;
70560;SDS011;58109;53.570;10.084;2023-04-29T12:12:50;15.23;;;7.33;;
70560;SDS011;58109;53.570;10.084;2023-04-29T12:15:16;10.33;;;6.23;;
70560;SDS011;58109;53.570;10.084;2023-04-29T12:17:42;10.60;;;5.40;;
70560;SDS011;58109;53.570;10.084;2023-04-29T12:20:07;16.20;;;6.10;;
70560;SDS011;58109;53.570;10.084;2023-04-29T12:22:38;12.30;;;5.50;;
70560;SDS011;58109;53.570;10.084;2023-04-29T12:25:07;12.93;;;5.50;;
70560;SDS011;58109;53.570;10.084;2023-04-29T12:27:34;11.73;;;6.03;;
70560;SDS011;58109;53.570;10.084;2023-04-29T12:30:06;13.43;;;6.30;;
70560;SDS011;58109;53.570;10.084;2023-04-29T12:32:33;17.23;;;5.80;;
70560;SDS011;58109;53.570;10.084;2023-04-29T12:34:58;11.33;;;6.20;;
70560;SDS011;58109;53.570;10.084;2023-04-29T12:37:24;8.90;;;4.63;;
70560;SDS011;58109;53.570;10.084;2023-04-29T12:39:50;13.97;;;5.47;;
70560;SDS011;58109;53.570;10.084;2023-04-29T12:42:16;7.80;;;5.60;;
70560;SDS011;58109;53.570;10.084;2023-04-29T12:44:45;11.33;;;5.33;;
70560;SDS011;58109;53.570;10.084;2023-04-29T12:47:13;13.37;;;6.70;;
70560;SDS011;58109;53.570;10.084;2023-04-29T12:49:45;11.13;;;4.00;;
70560;SDS011;58109;53.570;10.084;2023-04-29T12:52:12;5.13;;;3.83;;
70560;SDS011;58109;53.570;10.084;2023-04-29T12:54:40;8.77;;;3.80;;
70560;SDS011;58109;53.570;10.084;2023-04-29T12:57:07;4.00;;;3.30;;
70560;SDS011;58109;53.570;10.084;2023-04-29T12:59:41;10.30;;;3.70;;
70560;SDS011;58109;53.570;10.084;2023-04-29T13:02:06;7.90;;;3.50;;
70560;SDS011;58109;53.570;10.084;2023-04-29T13:04:31;9.50;;;4.53;;
70560;SDS011;58109;53.570;10.084;2023-04-29T13:06:59;8.33;;;4.37;;
70560;SDS011;58109;53.570;10.084;2023-04-29T13:09:25;11.63;;;4.80;;
70560;SDS011;58109;53.570;10.084;2023-04-29T13:11:50;11.60;;;4.20;;
70560;SDS011;58109;53.570;10.084;2023-04-29T13:14:16;8.83;;;4.10;;
70560;SDS011;58109;53.570;10.084;2023-04-29T13:16:49;8.60;;;5.03;;
70560;SDS011;58109;53.570;10.084;2023-04-29T13:19:16;11.27;;;6.20;;
70560;SDS011;58109;53.570;10.084;2023-04-29T13:21:42;13.20;;;6.00;;
70560;SDS011;58109;53.570;10.084;2023-04-29T13:24:07;12.33;;;6.03;;
70560;SDS011;58109;53.570;10.084;2023-04-29T13:26:35;11.30;;;5.27;;
70560;SDS011;58109;53.570;10.084;2023-04-29T13:29:02;11.90;;;5.30;;
70560;SDS011;58109;53.570;10.084;2023-04-29T13:31:30;10.60;;;6.63;;
70560;SDS011;58109;53.570;10.084;2023-04-29T13:33:56;13.87;;;5.37;;
70560;SDS011;58109;53.570;10.084;2023-04-29T13:36:24;13.50;;;5.90;;
70560;SDS011;58109;53.570;10.084;2023-04-29T13:38:52;11.70;;;4.60;;
70560;SDS011;58109;53.570;10.084;2023-04-29T13:41:17;10.40;;;4.17;;
70560;SDS011;58109;53.570;10.084;2023-04-29T13:43:43;9.27;;;4.40;;
70560;SDS011;58109;53.570;10.084;2023-04-29T13:46:10;8.83;;;4.40;;
70560;SDS011;58109;53.570;10.084;2023-04-29T13:48:36;10.80;;;3.30;;
70560;SDS011;58109;53.570;10.084;2023-04-29T13:51:04;10.10;;;3.87;;
70560;SDS011;58109;53.570;10.084;2023-04-29T13:53:30;11.00;;;3.10;;
70560;SDS011;58109;53.570;10.084;2023-04-29T13:55:55;8.90;;;3.23;;
70560;SDS011;58109;53.570;10.084;2023-04-29T13:58:26;3.60;;;3.03;;
70560;SDS011;58109;53.570;10.084;2023-04-29T14:00:53;10.63;;;3.23;;
70560;SDS011;58109;53.570;10.084;2023-04-29T14:03:26;7.70;;;2.73;;
70560;SDS011;58109;53.570;10.084;2023-04-29T14:05:54;3.23;;;1.93;;
70560;SDS011;58109;53.570;10.084;2023-04-29T14:08:22;6.60;;;2.40;;
70560;SDS011;58109;53.570;10.084;2023-04-29T14:10:50;8.30;;;2.63;;
70560;SDS011;58109;53.570;10.084;2023-04-29T14:13:18;8.00;;;1.90;;
70560;SDS011;58109;53.570;10.084;2023-04-29T14:15:46;6.63;;;2.37;;
70560;SDS011;58109;53.570;10.084;2023-04-29T14:18:14;2.53;;;2.33;;
70560;SDS011;58109;53.570;10.084;2023-04-29T14:20:42;6.97;;;3.10;;
70560;SDS011;58109;53.570;10.084;2023-04-29T14:23:10;2.80;;;2.40;;
70560;SDS011;58109;53.570;10.084;2023-04-29T14:25:35;5.40;;;3.00;;
70560;SDS011;58109;53.570;10.084;2023-04-29T14:28:01;4.40;;;2.50;;
70560;SDS011;58109;53.570;10.084;2023-04-29T14:30:31;11.97;;;2.67;;
70560;SDS011;58109;53.570;10.084;2023-04-29T14:32:56;2.97;;;1.90;;
70560;SDS011;58109;53.570;10.084;2023-04-29T14:35:21;3.50;;;2.40;;
70560;SDS011;58109;53.570;10.084;2023-04-29T14:37:49;3.97;;;2.13;;
70560;SDS011;58109;53.570;10.084;2023-04-29T14:40:17;5.10;;;2.37;;
70560;SDS011;58109;53.570;10.084;2023-04-29T14:42:43;4.30;;;2.03;;
70560;SDS011;58109;53.570;10.084;2023-04-29T14:45:08;5.43;;;1.90;;
70560;SDS011;58109;53.570;10.084;2023-04-29T14:47:36;5.90;;;2.37;;